Time;durP1;ratioP1;P1;durP2;ratioP2;P2;SDS_P1;SDS_P2;PMS_P1;PMS_P2;Temp;Humidity;BMP_temperature;BMP_pressure;BME280_temperature;BME280_humidity;BME280_pressure;Samples;Min_cycle;Max_cycle;Signal;HPM_P1;HPM_P2
2022/04/01 00:00:33;;;;;;;3.83;1.85;;;;;;;;;;5087161;28;20388;-70
2022/04/01 00:02:59;;;;;;;4.38;1.20;;;;;;;;;;5089063;28;20023;-68
2022/04/01 00:05:26;;;;;;;3.42;1.40;;;;;;;;;;5075657;28;20119;-72
2022/04/01 00:07:52;;;;;;;4.53;1.20;;;;;;;;;;5095632;27;20023;-68
2022/04/01 00:10:18;;;;;;;2.17;1.38;;;;;;;;;;5093286;28;20456;-68
2022/04/01 00:12:46;;;;;;;1.75;1.45;;;;;;;;;;5093299;28;20111;-68
2022/04/01 00:15:13;;;;;;;3.88;1.48;;;;;;;;;;5086295;28;20032;-68
2022/04/01 00:17:40;;;;;;;2.88;1.20;;;;;;;;;;5096444;28;20044;-67
2022/04/01 00:20:06;;;;;;;6.40;1.42;;;;;;;;;;5094840;28;20370;-68
2022/04/01 00:22:32;;;;;;;5.53;1.50;;;;;;;;;;5090432;28;20020;-68
2022/04/01 00:24:58;;;;;;;5.57;1.10;;;;;;;;;;5087740;28;20032;-68
2022/04/01 00:27:24;;;;;;;1.65;1.00;;;;;;;;;;5091480;28;20081;-68
2022/04/01 00:29:50;;;;;;;5.40;1.40;;;;;;;;;;5090204;28;20073;-68
2022/04/01 00:32:16;;;;;;;2.72;1.00;;;;;;;;;;5091925;28;20027;-68
2022/04/01 00:34:45;;;;;;;3.50;0.90;;;;;;;;;;5076367;28;20421;-68
2022/04/01 00:37:12;;;;;;;5.10;1.17;;;;;;;;;;5091869;28;20073;-68
2022/04/01 00:39:39;;;;;;;1.83;0.85;;;;;;;;;;5085246;28;20490;-68
2022/04/01 00:42:05;;;;;;;8.07;1.08;;;;;;;;;;5096532;28;20366;-68
2022/04/01 00:44:36;;;;;;;5.05;0.88;;;;;;;;;;5103114;28;20039;-68
2022/04/01 00:47:04;;;;;;;1.52;0.95;;;;;;;;;;5096198;28;20100;-69
2022/04/01 00:49:31;;;;;;;2.03;1.00;;;;;;;;;;5099961;28;20027;-68
2022/04/01 00:51:59;;;;;;;4.78;0.90;;;;;;;;;;5090424;28;20028;-68
2022/04/01 00:54:25;;;;;;;2.78;1.35;;;;;;;;;;5079063;28;20031;-68
2022/04/01 00:56:51;;;;;;;5.13;1.50;;;;;;;;;;5083719;28;20020;-68
2022/04/01 00:59:18;;;;;;;7.20;1.20;;;;;;;;;;5101058;27;20054;-68
2022/04/01 01:01:44;;;;;;;2.65;1.17;;;;;;;;;;5093729;28;20426;-68
2022/04/01 01:04:15;;;;;;;7.13;1.40;;;;;;;;;;5098205;28;20410;-68
2022/04/01 01:06:42;;;;;;;1.55;1.33;;;;;;;;;;5092539;28;20074;-67
2022/04/01 01:09:08;;;;;;;6.32;1.08;;;;;;;;;;5099827;28;20099;-68
2022/04/01 01:11:38;;;;;;;3.67;0.90;;;;;;;;;;5089127;28;20065;-68
2022/04/01 01:14:05;;;;;;;4.20;0.80;;;;;;;;;;5102630;28;20055;-68
2022/04/01 01:16:31;;;;;;;1.90;0.90;;;;;;;;;;5091859;28;20027;-69
2022/04/01 01:19:05;;;;;;;1.83;0.93;;;;;;;;;;5078714;28;20057;-68
2022/04/01 01:21:31;;;;;;;3.83;1.10;;;;;;;;;;5087296;28;20077;-68
2022/04/01 01:24:05;;;;;;;3.33;0.60;;;;;;;;;;5101389;28;20031;-68
2022/04/01 01:26:32;;;;;;;1.70;0.95;;;;;;;;;;5092165;28;20025;-68
2022/04/01 01:28:58;;;;;;;1.95;0.73;;;;;;;;;;5097473;28;20107;-67
2022/04/01 01:31:26;;;;;;;3.88;0.93;;;;;;;;;;5088035;28;20039;-67
2022/04/01 01:33:52;;;;;;;1.40;0.85;;;;;;;;;;5098102;28;20417;-67
2022/04/01 01:36:19;;;;;;;2.50;0.93;;;;;;;;;;5092314;28;20078;-68
2022/04/01 01:38:45;;;;;;;1.98;0.85;;;;;;;;;;5100414;28;20054;-68
2022/04/01 01:41:11;;;;;;;3.22;0.82;;;;;;;;;;5074069;28;20017;-67
2022/04/01 01:43:38;;;;;;;3.80;0.82;;;;;;;;;;5100068;28;20032;-67
2022/04/01 01:46:05;;;;;;;2.42;1.15;;;;;;;;;;5089975;28;20118;-68
2022/04/01 01:48:31;;;;;;;1.92;1.30;;;;;;;;;;5087209;28;20436;-68
2022/04/01 01:56:26;;;;;;;1.45;0.85;;;;;;;;;;5095861;28;20039;-67
2022/04/01 01:58:53;;;;;;;2.33;1.00;;;;;;;;;;5104481;28;20523;-68
2022/04/01 02:01:20;;;;;;;3.17;1.50;;;;;;;;;;5089161;28;20103;-69
2022/04/01 02:03:46;;;;;;;3.78;1.30;;;;;;;;;;5104173;28;20486;-68
2022/04/01 02:06:13;;;;;;;2.42;1.02;;;;;;;;;;5079472;28;20470;-68
2022/04/01 02:08:39;;;;;;;3.38;1.00;;;;;;;;;;5110537;28;20019;-67
2022/04/01 02:11:05;;;;;;;1.95;1.15;;;;;;;;;;5092485;28;20032;-68
2022/04/01 02:13:31;;;;;;;2.30;1.17;;;;;;;;;;5084111;28;20470;-68
2022/04/01 02:15:58;;;;;;;5.55;1.05;;;;;;;;;;5094206;28;20479;-68
2022/04/01 02:18:24;;;;;;;3.38;0.93;;;;;;;;;;5098003;28;20068;-68
2022/04/01 02:20:50;;;;;;;4.53;1.48;;;;;;;;;;5097755;28;20035;-68
2022/04/01 02:23:19;;;;;;;6.65;1.50;;;;;;;;;;5088178;28;20024;-69
2022/04/01 02:25:45;;;;;;;6.10;1.38;;;;;;;;;;5094968;28;20024;-68
2022/04/01 02:28:14;;;;;;;2.40;1.10;;;;;;;;;;5098630;28;20103;-68
2022/04/01 02:30:41;;;;;;;5.43;1.10;;;;;;;;;;5097342;28;20016;-69
2022/04/01 02:33:07;;;;;;;10.43;3.72;;;;;;;;;;5101893;28;20077;-68
2022/04/01 02:35:33;;;;;;;5.00;1.60;;;;;;;;;;5098560;28;20035;-68
2022/04/01 02:38:01;;;;;;;3.47;1.20;;;;;;;;;;5115419;28;20081;-68
2022/04/01 02:40:27;;;;;;;2.60;1.10;;;;;;;;;;5095689;28;20028;-69
2022/04/01 02:42:54;;;;;;;6.07;1.00;;;;;;;;;;5099951;28;20123;-69
2022/04/01 02:45:26;;;;;;;5.13;0.95;;;;;;;;;;5095670;28;20028;-68
2022/04/01 02:47:52;;;;;;;3.92;1.10;;;;;;;;;;5078421;28;20359;-69
2022/04/01 02:50:19;;;;;;;3.53;1.48;;;;;;;;;;5093616;28;20466;-68
2022/04/01 02:52:45;;;;;;;6.22;1.55;;;;;;;;;;5103221;28;20559;-68
2022/04/01 02:55:12;;;;;;;4.28;1.50;;;;;;;;;;5105765;28;20047;-70
2022/04/01 02:57:38;;;;;;;6.72;1.35;;;;;;;;;;5091129;28;20048;-68
2022/04/01 03:00:09;;;;;;;4.68;1.40;;;;;;;;;;5098532;28;20032;-68
2022/04/01 03:02:38;;;;;;;7.40;1.40;;;;;;;;;;5100875;28;20521;-68
2022/04/01 03:05:05;;;;;;;4.30;1.00;;;;;;;;;;5090102;28;20399;-69
2022/04/01 03:07:31;;;;;;;3.75;1.20;;;;;;;;;;5081340;28;20031;-68
2022/04/01 03:09:57;;;;;;;5.65;1.02;;;;;;;;;;5094700;28;20092;-68
2022/04/01 03:12:23;;;;;;;6.63;1.10;;;;;;;;;;5111860;28;20175;-68
2022/04/01 03:14:51;;;;;;;2.22;0.98;;;;;;;;;;5076391;28;20117;-69
2022/04/01 03:17:17;;;;;;;3.85;0.93;;;;;;;;;;5091587;28;20090;-68
2022/04/01 03:19:44;;;;;;;4.50;1.15;;;;;;;;;;5078990;28;20074;-68
2022/04/01 03:22:10;;;;;;;6.68;1.30;;;;;;;;;;5098644;28;20028;-68
2022/04/01 03:24:36;;;;;;;2.58;1.02;;;;;;;;;;5091494;28;20430;-68
2022/04/01 03:27:03;;;;;;;6.20;1.75;;;;;;;;;;5094908;28;20016;-70
2022/04/01 03:29:31;;;;;;;2.50;0.82;;;;;;;;;;5100902;28;20054;-70
2022/04/01 03:31:58;;;;;;;5.95;1.20;;;;;;;;;;5097626;28;20036;-69
2022/04/01 03:34:24;;;;;;;4.65;0.90;;;;;;;;;;5088525;28;20506;-70
2022/04/01 03:36:50;;;;;;;4.80;1.02;;;;;;;;;;5083449;28;20302;-68
2022/04/01 03:39:17;;;;;;;5.13;1.30;;;;;;;;;;5086909;28;20840;-68
2022/04/01 03:41:44;;;;;;;5.20;0.95;;;;;;;;;;5105530;28;20020;-68
2022/04/01 03:44:11;;;;;;;1.73;0.93;;;;;;;;;;5073034;28;20036;-68
2022/04/01 03:47:03;;;;;;;3.17;0.93;;;;;;;;;;5086673;28;20121;-68
2022/04/01 03:49:32;;;;;;;4.75;1.20;;;;;;;;;;5083889;28;20035;-69
2022/04/01 03:51:59;;;;;;;6.53;1.30;;;;;;;;;;5078033;28;20050;-69
2022/04/01 03:54:26;;;;;;;5.43;1.38;;;;;;;;;;5090562;28;20032;-68
2022/04/01 03:59:41;;;;;;;4.78;0.88;;;;;;;;;;5088267;27;20757;-68
2022/04/01 04:02:12;;;;;;;11.30;1.35;;;;;;;;;;5070150;28;20030;-69
2022/04/01 04:04:39;;;;;;;6.50;0.85;;;;;;;;;;5066509;28;20058;-69
2022/04/01 04:07:09;;;;;;;6.30;0.90;;;;;;;;;;5066343;28;20048;-68
2022/04/01 04:09:39;;;;;;;8.23;0.88;;;;;;;;;;5080369;28;20031;-68
2022/04/01 04:12:06;;;;;;;3.63;1.00;;;;;;;;;;5067199;28;20047;-68
2022/04/01 04:14:32;;;;;;;2.33;1.00;;;;;;;;;;5064748;28;20036;-69
2022/04/01 04:17:00;;;;;;;5.13;0.90;;;;;;;;;;5070809;28;20025;-68
2022/04/01 04:19:41;;;;;;;2.70;0.80;;;;;;;;;;5067310;28;20056;-69
2022/04/01 04:22:14;;;;;;;4.10;1.02;;;;;;;;;;5058343;28;20039;-68
2022/04/01 04:24:47;;;;;;;4.78;1.20;;;;;;;;;;5060357;28;20044;-69
2022/04/01 04:27:17;;;;;;;4.57;1.08;;;;;;;;;;5073792;28;20033;-67
2022/04/01 04:29:51;;;;;;;2.38;0.90;;;;;;;;;;5065542;28;20063;-70
2022/04/01 04:32:36;;;;;;;3.80;0.82;;;;;;;;;;5065360;28;20505;-67
2022/04/01 04:35:07;;;;;;;3.30;1.15;;;;;;;;;;5066759;28;20021;-67
2022/04/01 04:37:35;;;;;;;3.45;0.93;;;;;;;;;;5062559;28;20048;-68
2022/04/01 04:40:01;;;;;;;6.32;1.10;;;;;;;;;;5054775;28;20029;-67
2022/04/01 04:42:28;;;;;;;3.67;1.27;;;;;;;;;;5062338;28;20022;-67
2022/04/01 04:44:54;;;;;;;7.70;1.00;;;;;;;;;;5050595;28;20075;-67
2022/04/01 04:47:26;;;;;;;3.17;1.48;;;;;;;;;;5053573;28;20029;-68
2022/04/01 04:49:53;;;;;;;8.35;2.25;;;;;;;;;;5055121;28;20112;-68
2022/04/01 04:52:20;;;;;;;1.55;0.70;;;;;;;;;;5057086;28;20480;-67
2022/04/01 04:54:46;;;;;;;8.70;0.95;;;;;;;;;;5064118;28;20043;-67
2022/04/01 04:57:13;;;;;;;7.57;1.65;;;;;;;;;;5063569;28;20067;-67
2022/04/01 04:59:41;;;;;;;10.38;1.25;;;;;;;;;;5074877;28;20043;-67
2022/04/01 05:02:12;;;;;;;2.47;1.17;;;;;;;;;;5070702;28;20017;-67
2022/04/01 05:04:46;;;;;;;3.58;0.93;;;;;;;;;;5068462;28;20025;-69
2022/04/01 05:07:33;;;;;;;8.23;2.22;;;;;;;;;;5066493;28;20028;-68
2022/04/01 05:10:18;;;;;;;2.50;1.00;;;;;;;;;;5059341;28;20473;-68
2022/04/01 05:13:03;;;;;;;4.15;1.23;;;;;;;;;;5042533;28;20477;-68
2022/04/01 05:15:31;;;;;;;7.55;1.27;;;;;;;;;;5055247;28;20115;-68
2022/04/01 05:18:15;;;;;;;7.47;1.08;;;;;;;;;;5064736;28;20061;-68
2022/04/01 05:20:52;;;;;;;20.77;8.70;;;;;;;;;;5052698;28;20021;-69
2022/04/01 05:23:30;;;;;;;6.40;2.38;;;;;;;;;;5045456;28;20045;-67
2022/04/01 05:25:58;;;;;;;5.78;0.75;;;;;;;;;;5046442;28;20022;-67
2022/04/01 05:28:25;;;;;;;4.78;1.15;;;;;;;;;;5051925;28;20041;-68
2022/04/01 05:31:12;;;;;;;5.32;1.33;;;;;;;;;;5052574;28;20540;-68
2022/04/01 05:33:45;;;;;;;5.25;1.42;;;;;;;;;;5049288;28;20028;-68
2022/04/01 05:36:12;;;;;;;6.22;1.08;;;;;;;;;;5048283;28;20032;-68
2022/04/01 05:38:38;;;;;;;5.97;1.20;;;;;;;;;;5050816;28;20164;-68
2022/04/01 05:41:06;;;;;;;9.95;1.23;;;;;;;;;;5051246;28;20035;-68
2022/04/01 05:43:33;;;;;;;5.55;1.20;;;;;;;;;;5052382;28;20427;-68
2022/04/01 05:45:59;;;;;;;7.43;1.15;;;;;;;;;;5054277;28;20487;-68
2022/04/01 05:48:27;;;;;;;4.53;1.23;;;;;;;;;;5049919;28;20481;-68
2022/04/01 05:50:53;;;;;;;2.72;0.95;;;;;;;;;;5049374;28;20036;-68
2022/04/01 05:53:21;;;;;;;8.82;1.42;;;;;;;;;;5050486;28;20033;-69
2022/04/01 05:55:48;;;;;;;3.22;1.05;;;;;;;;;;5052337;28;20020;-69
2022/04/01 05:58:15;;;;;;;2.47;0.80;;;;;;;;;;5041764;28;20092;-69
2022/04/01 06:01:01;;;;;;;3.67;1.02;;;;;;;;;;5050116;28;20351;-68
2022/04/01 06:03:54;;;;;;;3.13;0.68;;;;;;;;;;5048019;28;20028;-69
2022/04/01 06:06:22;;;;;;;4.28;1.17;;;;;;;;;;5049710;28;20036;-68
2022/04/01 06:08:58;;;;;;;3.30;0.98;;;;;;;;;;5040290;28;20041;-68
2022/04/01 06:11:36;;;;;;;2.97;0.80;;;;;;;;;;5048889;28;20144;-69
2022/04/01 06:14:05;;;;;;;9.98;1.08;;;;;;;;;;5050204;28;20113;-67
2022/04/01 06:16:34;;;;;;;9.82;1.55;;;;;;;;;;5042896;28;20527;-68
2022/04/01 06:19:04;;;;;;;6.47;0.90;;;;;;;;;;5056274;28;20030;-69
2022/04/01 06:21:36;;;;;;;6.97;1.20;;;;;;;;;;5051286;28;20047;-68
2022/04/01 06:24:08;;;;;;;2.47;0.80;;;;;;;;;;5051239;28;20037;-68
2022/04/01 06:26:40;;;;;;;4.68;1.33;;;;;;;;;;5044427;28;22281;-69
2022/04/01 06:29:17;;;;;;;9.13;3.08;;;;;;;;;;5047200;28;20526;-68
2022/04/01 06:31:46;;;;;;;11.63;5.63;;;;;;;;;;5035908;28;20137;-73
2022/04/01 06:34:19;;;;;;;3.33;0.70;;;;;;;;;;5048021;28;20832;-69
2022/04/01 06:36:49;;;;;;;6.50;2.20;;;;;;;;;;5049151;28;20036;-70
2022/04/01 06:39:21;;;;;;;5.78;0.82;;;;;;;;;;5050175;28;20045;-68
2022/04/01 06:41:51;;;;;;;4.72;1.13;;;;;;;;;;5056694;28;20578;-68
2022/04/01 06:44:17;;;;;;;4.85;1.13;;;;;;;;;;5042152;28;20025;-69
2022/04/01 06:46:44;;;;;;;7.80;1.08;;;;;;;;;;5048032;28;20473;-68
2022/04/01 06:49:10;;;;;;;2.75;0.93;;;;;;;;;;5049339;28;20298;-68
2022/04/01 06:51:39;;;;;;;5.00;1.05;;;;;;;;;;5049243;28;20036;-67
2022/04/01 06:54:06;;;;;;;3.70;1.30;;;;;;;;;;5045242;28;20998;-68
2022/04/01 06:56:33;;;;;;;1.80;0.75;;;;;;;;;;5050803;28;20041;-69
2022/04/01 06:58:59;;;;;;;6.30;1.33;;;;;;;;;;5046341;28;20057;-69
2022/04/01 07:01:25;;;;;;;4.03;0.80;;;;;;;;;;5042385;28;20029;-68
2022/04/01 07:03:52;;;;;;;2.38;1.13;;;;;;;;;;5042652;28;20029;-69
2022/04/01 07:06:19;;;;;;;4.22;0.90;;;;;;;;;;5046552;28;20044;-68
2022/04/01 07:08:47;;;;;;;4.18;0.90;;;;;;;;;;5053098;28;20048;-68
2022/04/01 07:11:14;;;;;;;4.93;1.48;;;;;;;;;;5041884;28;20067;-68
2022/04/01 07:13:40;;;;;;;1.10;0.70;;;;;;;;;;5038259;28;20092;-69
2022/04/01 07:16:06;;;;;;;2.65;0.85;;;;;;;;;;5046527;28;20641;-71
2022/04/01 07:18:33;;;;;;;12.70;5.30;;;;;;;;;;5038516;28;20476;-74
2022/04/01 07:20:59;;;;;;;8.55;2.70;;;;;;;;;;5044125;28;20598;-70
2022/04/01 07:23:25;;;;;;;5.57;1.08;;;;;;;;;;5047827;28;20057;-70
2022/04/01 07:25:51;;;;;;;4.13;1.17;;;;;;;;;;5043489;28;20036;-69
2022/04/01 07:28:17;;;;;;;3.13;1.10;;;;;;;;;;5050913;28;20093;-70
2022/04/01 07:30:43;;;;;;;4.07;1.20;;;;;;;;;;5047148;28;20060;-70
2022/04/01 07:33:10;;;;;;;2.42;0.52;;;;;;;;;;5044157;28;20041;-70
2022/04/01 07:35:36;;;;;;;7.05;2.22;;;;;;;;;;5038558;28;20025;-70
2022/04/01 07:38:04;;;;;;;6.25;1.33;;;;;;;;;;5049209;28;20108;-70
2022/04/01 07:40:30;;;;;;;6.78;1.17;;;;;;;;;;5061358;28;20473;-70
2022/04/01 07:42:57;;;;;;;5.78;1.40;;;;;;;;;;5058231;28;20036;-70
2022/04/01 07:45:24;;;;;;;3.17;1.02;;;;;;;;;;5043512;28;20035;-70
2022/04/01 07:47:51;;;;;;;5.60;1.05;;;;;;;;;;5058644;28;20025;-69
2022/04/01 07:50:18;;;;;;;7.60;0.80;;;;;;;;;;5050329;28;20030;-70
2022/04/01 07:52:44;;;;;;;4.50;0.80;;;;;;;;;;5047117;28;20033;-69
2022/04/01 07:55:12;;;;;;;3.58;0.82;;;;;;;;;;5040697;28;20048;-69
2022/04/01 07:57:39;;;;;;;3.10;0.70;;;;;;;;;;5045506;28;20429;-68
2022/04/01 08:00:06;;;;;;;33.47;14.23;;;;;;;;;;5039253;28;20054;-70
2022/04/01 08:02:32;;;;;;;1.45;0.52;;;;;;;;;;5046998;28;20111;-69
2022/04/01 08:04:58;;;;;;;2.67;1.23;;;;;;;;;;5041488;28;20041;-69
2022/04/01 08:07:24;;;;;;;3.30;0.77;;;;;;;;;;5045484;28;20056;-70
2022/04/01 08:09:52;;;;;;;5.00;0.88;;;;;;;;;;5047446;28;23237;-70
2022/04/01 08:12:18;;;;;;;3.95;1.27;;;;;;;;;;5038824;28;20076;-70
2022/04/01 08:14:44;;;;;;;4.63;1.42;;;;;;;;;;5043800;28;20029;-70
2022/04/01 08:17:15;;;;;;;2.88;0.90;;;;;;;;;;5046947;28;20139;-69
2022/04/01 08:19:41;;;;;;;10.43;0.95;;;;;;;;;;5047799;28;20044;-68
2022/04/01 08:22:08;;;;;;;8.88;4.38;;;;;;;;;;5040486;28;20036;-68
2022/04/01 08:24:34;;;;;;;1.95;0.90;;;;;;;;;;5047110;28;20365;-69
2022/04/01 08:27:03;;;;;;;3.38;0.77;;;;;;;;;;5044607;28;20075;-69
2022/04/01 08:29:34;;;;;;;2.45;0.90;;;;;;;;;;5046132;28;20116;-68
2022/04/01 08:32:00;;;;;;;4.05;1.55;;;;;;;;;;5047828;28;20156;-69
2022/04/01 08:34:26;;;;;;;4.13;1.25;;;;;;;;;;5046179;28;20033;-68
2022/04/01 08:36:52;;;;;;;3.42;1.02;;;;;;;;;;5042487;28;20060;-68
2022/04/01 08:39:18;;;;;;;2.60;0.70;;;;;;;;;;5045016;28;20124;-68
2022/04/01 08:41:45;;;;;;;1.85;1.00;;;;;;;;;;5044943;28;20036;-68
2022/04/01 08:44:11;;;;;;;2.25;0.70;;;;;;;;;;5043927;28;20063;-68
2022/04/01 08:46:37;;;;;;;1.30;0.70;;;;;;;;;;5052781;28;20033;-69
2022/04/01 08:49:03;;;;;;;2.40;0.70;;;;;;;;;;5053061;28;20468;-69
2022/04/01 08:51:29;;;;;;;5.80;1.10;;;;;;;;;;5050250;28;20041;-69
2022/04/01 08:53:55;;;;;;;7.22;0.80;;;;;;;;;;5052537;28;20061;-69
2022/04/01 08:56:21;;;;;;;1.50;0.73;;;;;;;;;;5046982;28;20029;-68
2022/04/01 08:58:48;;;;;;;3.33;0.90;;;;;;;;;;5050905;28;20473;-68
2022/04/01 09:01:14;;;;;;;3.20;0.90;;;;;;;;;;5050779;28;20380;-67
2022/04/01 09:03:41;;;;;;;1.60;0.70;;;;;;;;;;5042345;28;20037;-68
2022/04/01 09:06:07;;;;;;;4.68;0.75;;;;;;;;;;5033345;28;20412;-68
2022/04/01 09:08:35;;;;;;;4.43;1.05;;;;;;;;;;5056509;28;20037;-69
2022/04/01 09:11:06;;;;;;;1.10;0.80;;;;;;;;;;5045817;28;20033;-69
2022/04/01 09:13:47;;;;;;;2.67;0.70;;;;;;;;;;5034670;28;20029;-67
2022/04/01 09:16:33;;;;;;;1.60;1.00;;;;;;;;;;5041128;28;20379;-68
2022/04/01 09:19:00;;;;;;;2.72;0.82;;;;;;;;;;5036784;28;20037;-68
2022/04/01 09:21:27;;;;;;;1.25;0.68;;;;;;;;;;5044779;28;20017;-69
2022/04/01 09:23:54;;;;;;;7.30;1.10;;;;;;;;;;5046577;28;20029;-68
2022/04/01 09:26:21;;;;;;;7.72;1.23;;;;;;;;;;5042062;28;20029;-68
2022/04/01 09:28:47;;;;;;;3.60;1.33;;;;;;;;;;5050077;28;20033;-68
2022/04/01 09:31:15;;;;;;;0.90;0.80;;;;;;;;;;5048416;28;20064;-68
2022/04/01 09:33:43;;;;;;;2.65;0.90;;;;;;;;;;5046156;28;20481;-67
2022/04/01 09:36:20;;;;;;;24.10;13.55;;;;;;;;;;5044834;28;20029;-68
2022/04/01 09:39:00;;;;;;;6.32;2.72;;;;;;;;;;5036166;28;20037;-68
2022/04/01 09:41:34;;;;;;;1.70;0.70;;;;;;;;;;5058325;28;20025;-67
2022/04/01 09:44:05;;;;;;;2.17;1.00;;;;;;;;;;5047745;28;20060;-67
2022/04/01 09:46:32;;;;;;;2.95;0.90;;;;;;;;;;5046706;28;20025;-68
2022/04/01 09:49:00;;;;;;;7.63;1.10;;;;;;;;;;5051437;28;20489;-68
2022/04/01 09:51:29;;;;;;;5.32;1.35;;;;;;;;;;5037968;28;20029;-68
2022/04/01 09:53:58;;;;;;;1.63;0.90;;;;;;;;;;5047693;28;20400;-69
2022/04/01 09:56:37;;;;;;;5.00;1.20;;;;;;;;;;5049389;28;20120;-68
2022/04/01 09:59:04;;;;;;;3.53;1.77;;;;;;;;;;5051140;28;20481;-68
2022/04/01 10:01:31;;;;;;;8.75;1.33;;;;;;;;;;5043733;28;20044;-69
2022/04/01 10:03:58;;;;;;;3.60;1.50;;;;;;;;;;5040769;28;20108;-69
2022/04/01 10:06:24;;;;;;;1.75;1.08;;;;;;;;;;5038145;28;20029;-70
2022/04/01 10:08:52;;;;;;;2.40;0.90;;;;;;;;;;5051783;28;20174;-70
2022/04/01 10:11:19;;;;;;;2.78;1.27;;;;;;;;;;5052518;28;20032;-70
2022/04/01 10:13:46;;;;;;;1.77;0.82;;;;;;;;;;5050083;28;20086;-71
2022/04/01 10:16:13;;;;;;;1.30;0.80;;;;;;;;;;5052544;28;20032;-70
2022/04/01 10:18:40;;;;;;;3.97;1.42;;;;;;;;;;5051600;28;20468;-71
2022/04/01 10:21:07;;;;;;;2.58;1.00;;;;;;;;;;5044190;28;20051;-69
2022/04/01 10:23:34;;;;;;;4.45;1.40;;;;;;;;;;5051601;28;20555;-70
2022/04/01 10:26:03;;;;;;;2.63;1.20;;;;;;;;;;5052600;28;20033;-70
2022/04/01 10:28:29;;;;;;;4.47;1.13;;;;;;;;;;5059400;28;20056;-72
2022/04/01 10:30:58;;;;;;;2.83;0.95;;;;;;;;;;5041742;28;20032;-71
2022/04/01 10:33:26;;;;;;;4.40;1.70;;;;;;;;;;5051438;28;20060;-70
2022/04/01 10:35:54;;;;;;;3.25;1.30;;;;;;;;;;5050443;28;20025;-70
2022/04/01 10:38:21;;;;;;;4.63;1.05;;;;;;;;;;5043973;28;20048;-70
2022/04/01 10:40:53;;;;;;;1.30;0.88;;;;;;;;;;5047008;28;20028;-70
2022/04/01 10:43:29;;;;;;;16.42;9.55;;;;;;;;;;5042057;28;20025;-72
2022/04/01 10:46:03;;;;;;;5.70;3.22;;;;;;;;;;5048404;28;20056;-69
2022/04/01 10:51:39;;;;;;;3.40;1.90;;;;;;;;;;5051002;28;20052;-71
2022/04/01 10:54:14;;;;;;;5.88;1.20;;;;;;;;;;5047279;28;20035;-71
2022/04/01 10:56:41;;;;;;;5.70;3.20;;;;;;;;;;5046622;28;20116;-72
2022/04/01 10:59:12;;;;;;;3.83;1.17;;;;;;;;;;5048819;28;20107;-70
2022/04/01 11:01:38;;;;;;;4.85;2.08;;;;;;;;;;5041828;28;20072;-70
2022/04/01 11:04:13;;;;;;;4.65;0.98;;;;;;;;;;5048913;28;20045;-70
2022/04/01 11:06:52;;;;;;;2.47;0.65;;;;;;;;;;5046572;28;20086;-71
2022/04/01 11:09:38;;;;;;;4.93;0.95;;;;;;;;;;5049040;28;20033;-70
2022/04/01 11:12:19;;;;;;;2.30;0.90;;;;;;;;;;5050836;28;20037;-70
2022/04/01 11:14:57;;;;;;;2.95;0.63;;;;;;;;;;5052935;28;20025;-70
2022/04/01 11:17:27;;;;;;;0.85;0.68;;;;;;;;;;5049310;28;20043;-71
2022/04/01 11:20:22;;;;;;;1.83;0.70;;;;;;;;;;5051560;28;20360;-70
2022/04/01 11:22:51;;;;;;;2.10;0.68;;;;;;;;;;5047172;28;20045;-69
2022/04/01 11:25:23;;;;;;;2.72;1.40;;;;;;;;;;5042324;28;20021;-70
2022/04/01 11:27:50;;;;;;;1.65;0.80;;;;;;;;;;5040854;28;20025;-69
2022/04/01 11:30:16;;;;;;;1.60;0.30;;;;;;;;;;5041338;28;20029;-69
2022/04/01 11:32:48;;;;;;;2.28;0.95;;;;;;;;;;5040652;28;20056;-70
2022/04/01 11:35:17;;;;;;;2.85;0.50;;;;;;;;;;5040750;28;20039;-70
2022/04/01 11:37:44;;;;;;;1.85;0.55;;;;;;;;;;5047351;28;20075;-69
2022/04/01 11:40:15;;;;;;;1.20;0.57;;;;;;;;;;5047129;28;20028;-71
2022/04/01 11:43:05;;;;;;;1.50;0.60;;;;;;;;;;5048297;28;20366;-70
2022/04/01 11:45:33;;;;;;;3.72;0.65;;;;;;;;;;5046530;28;20033;-69
2022/04/01 11:47:59;;;;;;;2.40;0.40;;;;;;;;;;5043739;28;20387;-68
2022/04/01 11:50:25;;;;;;;2.70;0.60;;;;;;;;;;5045358;28;20029;-69
2022/04/01 11:52:55;;;;;;;2.15;0.40;;;;;;;;;;5045593;28;20052;-70
2022/04/01 11:55:27;;;;;;;5.45;2.70;;;;;;;;;;5037872;28;20102;-68
2022/04/01 11:57:54;;;;;;;1.92;1.38;;;;;;;;;;5048997;28;20120;-69
2022/04/01 12:00:22;;;;;;;3.03;0.55;;;;;;;;;;5049949;28;20032;-69
2022/04/01 12:02:51;;;;;;;5.15;0.50;;;;;;;;;;5045935;28;20056;-69
2022/04/01 12:05:19;;;;;;;2.25;0.80;;;;;;;;;;5039278;28;20027;-69
2022/04/01 12:10:42;;;;;;;1.67;0.90;;;;;;;;;;5049501;28;20044;-70
2022/04/01 12:13:09;;;;;;;5.05;0.90;;;;;;;;;;5047901;28;20025;-70
2022/04/01 12:15:36;;;;;;;2.03;0.82;;;;;;;;;;5050124;28;20112;-70
2022/04/01 12:18:13;;;;;;;5.20;0.60;;;;;;;;;;5041301;28;20029;-70
2022/04/01 12:20:47;;;;;;;3.67;0.88;;;;;;;;;;5044915;28;20022;-70
2022/04/01 12:23:13;;;;;;;4.20;0.90;;;;;;;;;;5043371;28;20052;-71
2022/04/01 12:25:40;;;;;;;5.47;0.65;;;;;;;;;;5050654;28;20056;-70
2022/04/01 12:28:07;;;;;;;5.75;0.55;;;;;;;;;;5053009;28;20036;-70
2022/04/01 12:30:33;;;;;;;1.20;0.40;;;;;;;;;;5054150;28;20683;-70
2022/04/01 12:33:01;;;;;;;3.35;0.75;;;;;;;;;;5053105;28;20385;-70
2022/04/01 12:35:27;;;;;;;1.67;0.60;;;;;;;;;;5054081;28;20029;-70
2022/04/01 12:38:12;;;;;;;2.38;0.63;;;;;;;;;;5051645;28;20048;-70
2022/04/01 12:40:48;;;;;;;0.77;0.60;;;;;;;;;;5052507;28;20427;-70
2022/04/01 12:43:47;;;;;;;3.67;1.83;;;;;;;;;;5053100;28;20025;-71
2022/04/01 12:46:19;;;;;;;4.95;0.80;;;;;;;;;;5020868;28;20045;-70
2022/04/01 12:48:52;;;;;;;0.98;0.68;;;;;;;;;;5051252;28;20036;-70
2022/04/01 12:51:40;;;;;;;2.05;0.70;;;;;;;;;;5053519;28;20037;-71
2022/04/01 12:54:08;;;;;;;3.85;0.75;;;;;;;;;;5053472;28;20526;-70
2022/04/01 12:56:35;;;;;;;1.52;1.00;;;;;;;;;;5054880;28;20033;-70
2022/04/01 12:59:16;;;;;;;1.73;0.85;;;;;;;;;;5053246;28;20056;-70
2022/04/01 13:01:43;;;;;;;2.75;0.57;;;;;;;;;;5037544;28;20037;-70
2022/04/01 13:04:10;;;;;;;5.28;0.70;;;;;;;;;;5053667;28;20072;-71
2022/04/01 13:06:36;;;;;;;3.67;0.82;;;;;;;;;;5054224;28;20063;-71
2022/04/01 13:09:07;;;;;;;1.75;0.63;;;;;;;;;;5053770;28;20460;-71
2022/04/01 13:11:37;;;;;;;6.03;0.70;;;;;;;;;;5052705;28;20103;-71
2022/04/01 13:14:04;;;;;;;1.52;0.80;;;;;;;;;;5052795;28;20055;-71
2022/04/01 13:16:37;;;;;;;4.15;0.77;;;;;;;;;;5054118;28;20108;-71
2022/04/01 13:19:19;;;;;;;9.73;1.02;;;;;;;;;;5048740;28;20056;-71
2022/04/01 13:21:45;;;;;;;4.72;0.65;;;;;;;;;;5033748;28;20469;-71
2022/04/01 13:24:11;;;;;;;3.58;1.45;;;;;;;;;;5047934;28;20469;-71
2022/04/01 13:26:37;;;;;;;2.50;1.05;;;;;;;;;;5051583;28;20029;-71
2022/04/01 13:29:04;;;;;;;6.25;0.98;;;;;;;;;;5052350;28;20108;-71
2022/04/01 13:31:30;;;;;;;4.93;1.25;;;;;;;;;;5045273;28;20040;-71
2022/04/01 13:33:56;;;;;;;2.30;1.15;;;;;;;;;;5052443;28;20068;-71
2022/04/01 13:36:25;;;;;;;5.55;1.42;;;;;;;;;;5053966;28;20033;-71
2022/04/01 13:38:51;;;;;;;3.67;1.73;;;;;;;;;;5059005;28;20587;-71
2022/04/01 13:41:17;;;;;;;8.30;1.45;;;;;;;;;;5056014;28;20029;-71
2022/04/01 13:43:43;;;;;;;5.05;1.73;;;;;;;;;;5052059;28;20036;-71
2022/04/01 13:46:12;;;;;;;9.27;1.88;;;;;;;;;;5053156;28;20021;-71
2022/04/01 13:48:38;;;;;;;3.58;1.40;;;;;;;;;;5054434;28;20071;-71
2022/04/01 13:51:04;;;;;;;6.20;1.75;;;;;;;;;;5053769;28;20052;-70
2022/04/01 13:53:30;;;;;;;3.78;1.40;;;;;;;;;;5045483;28;20029;-70
2022/04/01 13:55:57;;;;;;;6.13;1.30;;;;;;;;;;5047882;28;20021;-70
2022/04/01 13:58:23;;;;;;;9.73;0.90;;;;;;;;;;5046346;28;20484;-70
2022/04/01 14:00:49;;;;;;;2.83;0.88;;;;;;;;;;5049348;28;20029;-70
2022/04/01 14:03:15;;;;;;;7.97;1.33;;;;;;;;;;5034706;28;20029;-70
2022/04/01 14:05:41;;;;;;;4.25;1.13;;;;;;;;;;5052506;28;20075;-70
2022/04/01 14:08:07;;;;;;;5.78;1.52;;;;;;;;;;5052375;28;20040;-71
2022/04/01 14:10:33;;;;;;;4.60;1.27;;;;;;;;;;5071273;28;20048;-70
2022/04/01 14:13:00;;;;;;;5.00;1.40;;;;;;;;;;5051356;28;20029;-70
2022/04/01 14:15:26;;;;;;;5.78;1.58;;;;;;;;;;5051489;28;20029;-70
2022/04/01 14:17:52;;;;;;;6.60;1.95;;;;;;;;;;5051584;28;20542;-70
2022/04/01 14:20:18;;;;;;;6.68;1.23;;;;;;;;;;5051742;28;20396;-70
2022/04/01 14:22:44;;;;;;;4.90;0.95;;;;;;;;;;5052560;28;20499;-70
2022/04/01 14:25:10;;;;;;;4.20;1.23;;;;;;;;;;5052392;28;20060;-70
2022/04/01 14:27:36;;;;;;;6.55;0.93;;;;;;;;;;5051362;28;20480;-71
2022/04/01 14:30:18;;;;;;;5.97;1.17;;;;;;;;;;5050169;28;20043;-70
2022/04/01 14:32:53;;;;;;;3.33;1.00;;;;;;;;;;5048960;28;20041;-70
2022/04/01 14:35:19;;;;;;;2.95;0.75;;;;;;;;;;5052746;28;20033;-71
2022/04/01 14:37:46;;;;;;;3.08;1.05;;;;;;;;;;5052073;28;20029;-70
2022/04/01 14:40:12;;;;;;;2.65;1.00;;;;;;;;;;5050773;28;20051;-70
2022/04/01 14:42:38;;;;;;;2.15;0.65;;;;;;;;;;5050474;28;20051;-70
2022/04/01 14:45:04;;;;;;;7.95;1.60;;;;;;;;;;5052201;28;20032;-70
2022/04/01 14:47:31;;;;;;;9.05;1.70;;;;;;;;;;5050441;28;20503;-71
2022/04/01 14:49:57;;;;;;;5.90;0.98;;;;;;;;;;5050315;28;20036;-71
2022/04/01 14:52:23;;;;;;;3.28;1.13;;;;;;;;;;5045827;28;20030;-71
2022/04/01 14:54:50;;;;;;;4.43;1.27;;;;;;;;;;5041396;28;20072;-70
2022/04/01 14:57:18;;;;;;;1.95;0.80;;;;;;;;;;5051559;28;20028;-70
2022/04/01 14:59:44;;;;;;;4.85;1.42;;;;;;;;;;5050764;28;20148;-70
2022/04/01 15:02:10;;;;;;;2.25;1.20;;;;;;;;;;5083093;28;20557;-70
2022/04/01 15:04:37;;;;;;;5.10;0.98;;;;;;;;;;5057975;28;20059;-70
2022/04/01 15:07:03;;;;;;;2.08;1.20;;;;;;;;;;5051409;28;20086;-70